createdAt,value
2023-10-18T00:00:51.427Z,0.0
2023-10-18T00:01:51.252Z,0.1
2023-10-18T00:02:52.432Z,0.2
2023-10-18T00:03:51.946Z,0.2
2023-10-18T00:04:51.575Z,0.1
2023-10-18T00:05:51.383Z,0.0
2023-10-18T00:06:52.028Z,0.0
2023-10-18T00:07:52.000Z,0.0
2023-10-18T00:08:51.660Z,0.0
2023-10-18T00:09:51.424Z,0.1
2023-10-18T00:10:51.684Z,0.2
2023-10-18T00:11:52.074Z,0.2
2023-10-18T00:12:51.744Z,0.0
2023-10-18T00:13:51.818Z,0.0
2023-10-18T00:14:51.390Z,0.2
2023-10-18T00:15:56.848Z,0.0
2023-10-18T00:16:51.782Z,0.3
2023-10-18T00:17:51.863Z,0.1
2023-10-18T00:18:51.480Z,0.0
2023-10-18T00:19:52.444Z,0.0
2023-10-18T00:20:58.019Z,0.0
2023-10-18T00:21:51.647Z,0.0
2023-10-18T00:22:51.707Z,0.0
2023-10-18T00:23:51.228Z,0.0
2023-10-18T00:24:51.944Z,0.0
2023-10-18T00:25:51.668Z,0.0
2023-10-18T00:26:51.447Z,0.0
2023-10-18T00:27:51.560Z,0.3
2023-10-18T00:28:51.943Z,0.0
2023-10-18T00:29:54.453Z,0.0
2023-10-18T00:30:51.650Z,0.0
2023-10-18T00:31:51.461Z,0.0
2023-10-18T00:32:51.395Z,0.3
2023-10-18T00:33:51.820Z,0.1
2023-10-18T00:34:51.622Z,0.0
2023-10-18T00:35:54.880Z,0.0
2023-10-18T00:36:51.263Z,0.0
2023-10-18T00:37:51.985Z,0.0
2023-10-18T00:38:51.711Z,0.0
2023-10-18T00:39:51.886Z,0.1
2023-10-18T00:40:51.401Z,0.0
2023-10-18T00:41:51.952Z,0.1
2023-10-18T00:42:51.821Z,0.0
2023-10-18T00:43:51.725Z,0.0
2023-10-18T00:44:51.404Z,0.1
2023-10-18T00:45:52.379Z,0.2
2023-10-18T00:46:52.093Z,0.0
2023-10-18T00:47:51.701Z,0.0
2023-10-18T00:48:51.737Z,0.1
2023-10-18T00:49:51.274Z,0.0
2023-10-18T00:50:52.570Z,0.0
2023-10-18T00:51:51.790Z,0.0
2023-10-18T00:52:51.492Z,0.0
2023-10-18T00:53:51.271Z,0.3
2023-10-18T00:54:52.062Z,0.1
2023-10-18T00:55:52.568Z,0.3
2023-10-18T00:56:51.630Z,0.0
2023-10-18T00:57:51.621Z,0.0
2023-10-18T00:58:51.229Z,0.0
2023-10-18T00:59:52.054Z,0.0
2023-10-18T01:00:52.274Z,0.0
2023-10-18T01:01:51.864Z,0.1
2023-10-18T01:02:51.344Z,0.1
2023-10-18T01:03:53.272Z,0.4
2023-10-18T01:04:51.755Z,0.0
2023-10-18T01:05:56.454Z,0.0
2023-10-18T01:06:51.776Z,0.1
2023-10-18T01:07:51.287Z,0.0
2023-10-18T01:08:51.849Z,0.1
2023-10-18T01:09:51.672Z,0.0
2023-10-18T01:10:51.510Z,0.0
2023-10-18T01:11:51.284Z,0.0
2023-10-18T01:12:52.002Z,0.0
2023-10-18T01:13:51.741Z,0.0
2023-10-18T01:14:51.729Z,0.0
2023-10-18T01:15:51.355Z,0.1
2023-10-18T01:16:52.200Z,0.0
2023-10-18T01:17:51.813Z,0.1
2023-10-18T01:18:52.805Z,0.1
2023-10-18T01:19:51.366Z,0.0
2023-10-18T01:20:51.159Z,0.1
2023-10-18T01:21:52.817Z,0.0
2023-10-18T01:22:51.707Z,0.0
2023-10-18T01:23:52.572Z,0.0
2023-10-18T01:24:51.341Z,0.0
2023-10-18T01:25:51.969Z,0.1
2023-10-18T01:26:51.779Z,0.3
2023-10-18T01:27:51.673Z,0.1
2023-10-18T01:28:52.523Z,0.3
2023-10-18T01:29:51.136Z,0.2
2023-10-18T01:30:51.948Z,0.0
2023-10-18T01:31:51.946Z,0.0
2023-10-18T01:32:51.804Z,0.0
2023-10-18T01:33:51.383Z,0.0
2023-10-18T01:34:51.894Z,0.3
2023-10-18T01:35:51.997Z,0.0
2023-10-18T01:36:51.533Z,0.0
2023-10-18T01:37:51.478Z,0.0
2023-10-18T01:38:52.912Z,0.0
2023-10-18T01:39:51.847Z,0.0
2023-10-18T01:40:51.997Z,0.1
2023-10-18T01:41:51.909Z,0.2
2023-10-18T01:42:51.719Z,0.0
2023-10-18T01:43:55.795Z,0.0
2023-10-18T01:44:51.789Z,0.0
2023-10-18T01:45:51.489Z,0.0
2023-10-18T01:46:51.280Z,0.0
2023-10-18T01:47:54.359Z,0.0
2023-10-18T01:48:51.862Z,0.1
2023-10-18T01:49:51.669Z,0.2
2023-10-18T01:50:51.358Z,0.0
2023-10-18T01:51:52.356Z,0.0
2023-10-18T01:52:51.871Z,0.1
2023-10-18T01:53:52.098Z,0.0
2023-10-18T01:54:51.413Z,0.0
2023-10-18T01:55:51.220Z,0.0
2023-10-18T01:56:54.895Z,0.0
2023-10-18T01:57:51.894Z,0.0
2023-10-18T01:58:51.544Z,0.0
2023-10-18T01:59:51.411Z,0.0
2023-10-18T02:00:51.994Z,0.0
2023-10-18T02:01:51.870Z,0.0
2023-10-18T02:02:51.782Z,0.0
2023-10-18T02:03:51.765Z,0.2
2023-10-18T02:04:53.769Z,0.0
2023-10-18T02:05:52.091Z,0.0
2023-10-18T02:06:52.646Z,0.0
2023-10-18T02:07:51.888Z,0.0
2023-10-18T02:08:51.334Z,0.0
2023-10-18T02:09:52.288Z,0.0
2023-10-18T02:10:52.358Z,0.0
2023-10-18T02:11:51.625Z,0.0
2023-10-18T02:12:51.735Z,0.0
2023-10-18T02:13:51.136Z,0.0
2023-10-18T02:14:52.021Z,0.3
2023-10-18T02:15:51.747Z,0.0
2023-10-18T02:16:51.739Z,0.0
2023-10-18T02:17:51.439Z,0.2
2023-10-18T02:18:52.268Z,0.0
2023-10-18T02:19:51.783Z,0.0
2023-10-18T02:20:51.532Z,0.0
2023-10-18T02:21:51.318Z,0.2
2023-10-18T02:22:52.679Z,0.1
2023-10-18T02:23:51.905Z,0.3
2023-10-18T02:24:51.932Z,0.0
2023-10-18T02:25:51.482Z,0.0
2023-10-18T02:26:51.495Z,0.0
2023-10-18T02:27:51.886Z,0.1
2023-10-18T02:28:51.810Z,0.1
2023-10-18T02:29:51.476Z,0.0
2023-10-18T02:30:57.763Z,0.0
2023-10-18T02:31:52.157Z,0.0
2023-10-18T02:32:51.891Z,0.0
2023-10-18T02:33:51.642Z,0.0
2023-10-18T02:34:51.394Z,0.0
2023-10-18T02:35:51.188Z,0.1
2023-10-18T02:36:54.870Z,0.0
2023-10-18T02:37:51.643Z,0.0
2023-10-18T02:38:51.545Z,0.0
2023-10-18T02:40:04.409Z,0.0
2023-10-18T02:40:52.102Z,0.1
2023-10-18T02:41:51.836Z,0.4
2023-10-18T02:42:51.568Z,0.0
2023-10-18T02:43:51.419Z,0.0
2023-10-18T02:44:51.170Z,0.0
2023-10-18T02:45:51.899Z,0.0
2023-10-18T02:46:51.877Z,0.0
2023-10-18T02:47:51.425Z,0.0
2023-10-18T02:48:51.772Z,0.0
2023-10-18T02:49:51.914Z,0.0
2023-10-18T02:50:52.017Z,0.0
2023-10-18T02:51:51.535Z,0.2
2023-10-18T02:52:51.324Z,0.0
2023-10-18T02:53:52.705Z,0.0
2023-10-18T02:54:51.790Z,0.0
2023-10-18T02:55:51.789Z,0.0
2023-10-18T02:56:51.450Z,0.2
2023-10-18T02:57:51.283Z,0.0
2023-10-18T02:58:52.021Z,0.0
2023-10-18T02:59:51.711Z,0.1
2023-10-18T03:00:51.500Z,0.0
2023-10-18T03:01:51.935Z,0.1
2023-10-18T03:02:52.007Z,0.2
2023-10-18T03:03:52.088Z,0.0
2023-10-18T03:04:51.632Z,0.0
2023-10-18T03:05:51.348Z,0.0
2023-10-18T03:06:51.151Z,0.1
2023-10-18T03:07:51.872Z,0.2
2023-10-18T03:08:51.726Z,0.3
2023-10-18T03:09:51.492Z,0.0
2023-10-18T03:10:51.229Z,0.2
2023-10-18T03:11:52.047Z,0.2
2023-10-18T03:12:51.721Z,0.1
2023-10-18T03:13:51.805Z,0.0
2023-10-18T03:14:51.293Z,0.0
2023-10-18T03:16:01.334Z,0.0
2023-10-18T03:16:51.825Z,0.1
2023-10-18T03:17:51.661Z,0.0
2023-10-18T03:18:51.539Z,0.1
2023-10-18T03:19:52.161Z,0.0
2023-10-18T03:20:52.261Z,0.0
2023-10-18T03:21:53.100Z,0.0
2023-10-18T03:22:51.856Z,0.0
2023-10-18T03:23:51.609Z,0.0
2023-10-18T03:24:52.629Z,0.0
2023-10-18T03:25:57.930Z,0.0
2023-10-18T03:26:51.567Z,0.0
2023-10-18T03:27:51.540Z,0.0
2023-10-18T03:28:51.152Z,0.0
2023-10-18T03:29:55.314Z,0.2
2023-10-18T03:30:51.650Z,0.0
2023-10-18T03:31:51.407Z,0.1
2023-10-18T03:32:51.605Z,0.1
2023-10-18T03:33:51.956Z,0.2
2023-10-18T03:34:51.881Z,0.4
2023-10-18T03:36:02.038Z,0.0
2023-10-18T03:36:51.531Z,0.1
2023-10-18T03:37:51.969Z,0.0
2023-10-18T03:38:51.954Z,0.4
2023-10-18T03:39:51.879Z,0.0
2023-10-18T03:40:51.362Z,0.0
2023-10-18T03:41:51.546Z,0.0
2023-10-18T03:42:51.904Z,0.0
2023-10-18T03:43:54.348Z,0.0
2023-10-18T03:44:51.576Z,0.0
2023-10-18T03:45:51.300Z,0.1
2023-10-18T03:46:51.946Z,0.0
2023-10-18T03:47:51.731Z,0.3
2023-10-18T03:48:51.583Z,0.0
2023-10-18T03:49:51.429Z,0.0
2023-10-18T03:50:54.613Z,0.0
2023-10-18T03:51:51.856Z,0.0
2023-10-18T03:52:51.630Z,0.0
2023-10-18T03:53:51.585Z,0.0
2023-10-18T03:54:51.329Z,0.1
2023-10-18T03:55:51.907Z,0.0
2023-10-18T03:56:51.640Z,0.2
2023-10-18T03:57:51.494Z,0.0
2023-10-18T03:58:51.328Z,0.3
2023-10-18T03:59:52.002Z,0.0
2023-10-18T04:00:54.482Z,0.1
2023-10-18T04:01:52.958Z,0.0
2023-10-18T04:02:51.830Z,0.0
2023-10-18T04:03:51.350Z,0.0
2023-10-18T04:04:51.938Z,0.0
2023-10-18T04:05:51.655Z,0.0
2023-10-18T04:06:51.666Z,0.2
2023-10-18T04:07:51.273Z,0.0
2023-10-18T04:08:51.942Z,0.1
2023-10-18T04:09:51.736Z,0.0
2023-10-18T04:10:58.200Z,0.4
2023-10-18T04:11:51.371Z,0.0
2023-10-18T04:12:51.218Z,0.0
2023-10-18T04:13:51.787Z,0.0
2023-10-18T04:14:52.042Z,0.0
2023-10-18T04:15:51.478Z,0.0
2023-10-18T04:16:51.212Z,0.1
2023-10-18T04:17:51.891Z,0.0
2023-10-18T04:18:51.745Z,0.0
2023-10-18T04:19:51.514Z,0.0
2023-10-18T04:20:51.272Z,0.3
2023-10-18T04:21:51.983Z,0.0
2023-10-18T04:22:51.860Z,0.0
2023-10-18T04:23:52.332Z,0.0
2023-10-18T04:24:51.361Z,0.0
2023-10-18T04:25:51.110Z,0.0
2023-10-18T04:26:51.915Z,0.0
2023-10-18T04:27:54.498Z,0.0
2023-10-18T04:28:51.782Z,0.0
2023-10-18T04:29:51.224Z,0.0
2023-10-18T04:30:52.513Z,0.0
2023-10-18T04:31:51.762Z,0.0
2023-10-18T04:32:51.517Z,0.0
2023-10-18T04:33:51.430Z,0.2
2023-10-18T04:34:52.003Z,0.0
2023-10-18T04:35:51.817Z,0.0
2023-10-18T04:36:51.722Z,0.0
2023-10-18T04:37:51.731Z,0.0
2023-10-18T04:38:51.262Z,0.0
2023-10-18T04:39:51.894Z,0.4
2023-10-18T04:40:51.883Z,0.2
2023-10-18T04:41:51.542Z,0.1
2023-10-18T04:42:54.688Z,0.0
2023-10-18T04:43:52.770Z,0.0
2023-10-18T04:44:51.822Z,0.1
2023-10-18T04:45:57.526Z,0.0
2023-10-18T04:46:51.578Z,0.1
2023-10-18T04:47:51.384Z,0.1
2023-10-18T04:48:51.944Z,0.0
2023-10-18T04:49:51.676Z,0.0
2023-10-18T04:50:51.485Z,0.0
2023-10-18T04:51:51.277Z,0.0
2023-10-18T04:52:52.028Z,0.0
2023-10-18T04:53:51.785Z,0.2
2023-10-18T04:54:51.588Z,0.1
2023-10-18T04:55:51.344Z,0.0
2023-10-18T04:56:51.154Z,0.0
2023-10-18T04:57:52.312Z,0.1
2023-10-18T04:58:51.590Z,0.0
2023-10-18T04:59:51.426Z,0.0
2023-10-18T05:00:51.216Z,0.0
2023-10-18T05:01:51.964Z,0.0
2023-10-18T05:02:52.660Z,0.0
2023-10-18T05:03:51.585Z,0.0
2023-10-18T05:04:51.466Z,0.0
2023-10-18T05:05:51.140Z,0.0
2023-10-18T05:06:52.689Z,0.0
2023-10-18T05:07:52.241Z,0.2
2023-10-18T05:08:51.445Z,0.0
2023-10-18T05:09:51.183Z,0.0
2023-10-18T05:10:55.518Z,0.1
2023-10-18T05:11:51.714Z,0.1
2023-10-18T05:12:51.543Z,0.0
2023-10-18T05:13:51.344Z,0.0
2023-10-18T05:14:54.115Z,0.0
2023-10-18T05:15:56.654Z,0.0
2023-10-18T05:16:51.603Z,0.0
2023-10-18T05:17:51.392Z,0.0
2023-10-18T05:18:54.706Z,0.0
2023-10-18T05:19:51.916Z,0.0
2023-10-18T05:20:54.410Z,0.0
2023-10-18T05:21:51.652Z,0.0
2023-10-18T05:22:51.325Z,0.1
2023-10-18T05:23:51.902Z,0.0
2023-10-18T05:24:57.927Z,0.0
2023-10-18T05:25:51.748Z,0.0
2023-10-18T05:26:51.331Z,0.0
2023-10-18T05:27:52.355Z,0.0
2023-10-18T05:28:51.819Z,0.0
2023-10-18T05:29:53.024Z,0.0
2023-10-18T05:30:51.426Z,0.0
2023-10-18T05:31:51.300Z,0.4
2023-10-18T05:32:51.956Z,0.0
2023-10-18T05:33:51.654Z,0.1
2023-10-18T05:35:02.679Z,0.2
2023-10-18T05:35:51.291Z,0.1
2023-10-18T05:36:52.048Z,0.0
2023-10-18T05:37:51.811Z,0.0
2023-10-18T05:38:51.561Z,0.0
2023-10-18T05:39:51.521Z,0.1
2023-10-18T05:40:51.250Z,0.0
2023-10-18T05:41:51.914Z,0.0
2023-10-18T05:42:51.660Z,0.0
2023-10-18T05:43:52.261Z,0.0
2023-10-18T05:44:51.238Z,0.1
2023-10-18T05:45:52.064Z,0.0
2023-10-18T05:46:51.922Z,0.0
2023-10-18T05:47:51.640Z,0.0
2023-10-18T05:48:51.400Z,0.0
2023-10-18T05:49:51.242Z,0.0
2023-10-18T05:50:52.496Z,0.3
2023-10-18T05:51:51.664Z,0.1
2023-10-18T05:52:51.536Z,0.1
2023-10-18T05:53:51.674Z,0.2
2023-10-18T05:54:51.990Z,0.2
2023-10-18T05:55:52.108Z,0.0
2023-10-18T05:56:51.594Z,0.2
2023-10-18T05:57:51.380Z,0.6
2023-10-18T05:58:51.174Z,0.1
2023-10-18T05:59:51.785Z,0.4
2023-10-18T06:00:57.786Z,0.3
2023-10-18T06:01:52.534Z,1.4
2023-10-18T06:02:51.250Z,1.0
2023-10-18T06:03:52.604Z,0.9
2023-10-18T06:04:51.927Z,0.7
2023-10-18T06:05:51.803Z,0.9
2023-10-18T06:06:52.042Z,0.9
2023-10-18T06:07:51.196Z,1.4
2023-10-18T06:08:51.877Z,0.9
2023-10-18T06:09:51.631Z,1.1
2023-10-18T06:10:57.345Z,1.4
2023-10-18T06:11:51.338Z,1.5
2023-10-18T06:12:52.293Z,1.4
2023-10-18T06:13:51.762Z,1.5
2023-10-18T06:14:51.565Z,2.3
2023-10-18T06:15:51.501Z,2.3
2023-10-18T06:16:52.021Z,1.4
2023-10-18T06:17:54.945Z,1.4
2023-10-18T06:18:51.674Z,2.0
2023-10-18T06:19:51.683Z,1.8
2023-10-18T06:20:51.254Z,1.8
2023-10-18T06:21:52.053Z,2.0
2023-10-18T06:22:51.784Z,1.8
2023-10-18T06:23:51.586Z,2.0
2023-10-18T06:24:51.478Z,2.4
2023-10-18T06:25:51.244Z,1.9
2023-10-18T06:26:52.329Z,1.3
2023-10-18T06:27:51.866Z,1.8
2023-10-18T06:28:51.503Z,2.4
2023-10-18T06:29:52.002Z,2.2
2023-10-18T06:30:52.761Z,1.4
2023-10-18T06:31:51.963Z,2.2
2023-10-18T06:32:51.645Z,2.2
2023-10-18T06:33:51.418Z,1.9
2023-10-18T06:34:51.605Z,1.6
2023-10-18T06:35:51.895Z,1.4
2023-10-18T06:36:51.757Z,1.6
2023-10-18T06:37:51.529Z,1.9
2023-10-18T06:38:51.613Z,2.2
2023-10-18T06:39:55.555Z,2.3
2023-10-18T06:41:04.407Z,2.4
2023-10-18T06:41:56.498Z,1.5
2023-10-18T06:42:51.508Z,1.9
2023-10-18T06:43:51.211Z,2.3
2023-10-18T06:44:51.820Z,1.6
2023-10-18T06:45:52.192Z,2.2
2023-10-18T06:46:51.505Z,2.7
2023-10-18T06:47:51.356Z,1.8
2023-10-18T06:49:07.573Z,2.1
2023-10-18T06:49:56.128Z,2.0
2023-10-18T06:50:51.578Z,2.0
2023-10-18T06:51:51.525Z,1.7
2023-10-18T06:52:51.328Z,2.1
2023-10-18T06:53:51.823Z,2.2
2023-10-18T06:54:51.692Z,2.1
2023-10-18T06:55:51.503Z,2.0
2023-10-18T06:56:51.252Z,1.9
2023-10-18T06:57:52.101Z,2.0
2023-10-18T06:58:51.752Z,1.5
2023-10-18T06:59:53.365Z,1.3
2023-10-18T07:00:51.453Z,1.1
2023-10-18T07:01:51.238Z,1.9
2023-10-18T07:02:52.122Z,1.4
2023-10-18T07:03:51.821Z,1.8
2023-10-18T07:04:51.500Z,1.9
2023-10-18T07:05:51.595Z,2.1
2023-10-18T07:06:52.003Z,1.6
2023-10-18T07:07:51.894Z,1.4
2023-10-18T07:08:51.802Z,1.9
2023-10-18T07:09:51.374Z,2.0
2023-10-18T07:11:52.788Z,1.8
2023-10-18T07:12:51.915Z,2.0
2023-10-18T07:13:51.399Z,2.0
2023-10-18T07:14:51.204Z,1.9
2023-10-18T07:15:51.950Z,2.1
2023-10-18T07:16:52.011Z,1.3
2023-10-18T07:17:51.701Z,1.8
2023-10-18T07:18:51.368Z,1.9
2023-10-18T07:19:51.418Z,1.8
2023-10-18T07:20:51.742Z,1.1
2023-10-18T07:21:51.841Z,1.7
2023-10-18T07:22:51.456Z,2.2
2023-10-18T07:23:51.149Z,2.0
2023-10-18T07:24:51.894Z,2.0
2023-10-18T07:26:05.873Z,1.7
2023-10-18T07:26:51.491Z,1.6
2023-10-18T07:27:51.549Z,1.9
2023-10-18T07:28:51.944Z,1.6
2023-10-18T07:29:51.754Z,1.6
2023-10-18T07:30:51.600Z,1.3
2023-10-18T07:31:51.478Z,1.3
2023-10-18T07:32:52.194Z,1.8
2023-10-18T07:33:51.867Z,1.7
2023-10-18T07:34:51.724Z,2.4
2023-10-18T07:35:51.406Z,1.8
2023-10-18T07:36:51.262Z,1.4
2023-10-18T07:37:52.191Z,2.1
2023-10-18T07:38:51.661Z,2.3
2023-10-18T07:39:51.693Z,1.5
2023-10-18T07:40:57.380Z,1.1
2023-10-18T07:41:54.796Z,1.9
2023-10-18T07:42:51.864Z,1.6
2023-10-18T07:43:51.585Z,1.9
2023-10-18T07:44:51.415Z,1.3
2023-10-18T07:45:53.963Z,1.4
2023-10-18T07:46:51.810Z,1.8
2023-10-18T07:47:51.744Z,1.8
2023-10-18T07:48:51.650Z,1.3
2023-10-18T07:49:54.224Z,1.3
2023-10-18T07:50:51.914Z,1.5
2023-10-18T07:51:51.750Z,1.1
2023-10-18T07:52:51.770Z,2.2
2023-10-18T07:53:54.691Z,1.5
2023-10-18T07:54:51.160Z,0.7
2023-10-18T07:55:51.770Z,1.9
2023-10-18T07:56:51.753Z,1.0
2023-10-18T07:57:51.531Z,1.8
2023-10-18T07:58:51.138Z,1.8
2023-10-18T07:59:51.874Z,1.8
2023-10-18T08:00:54.284Z,1.9
2023-10-18T08:01:51.579Z,0.8
2023-10-18T08:02:51.566Z,2.1
2023-10-18T08:04:51.829Z,1.7
2023-10-18T08:05:51.623Z,1.6
2023-10-18T08:06:51.361Z,2.0
2023-10-18T08:07:52.052Z,1.4
2023-10-18T08:08:51.815Z,1.7
2023-10-18T08:09:51.699Z,1.6
2023-10-18T08:10:51.931Z,1.4
2023-10-18T08:11:51.166Z,1.3
2023-10-18T08:12:51.904Z,1.8
2023-10-18T08:13:51.693Z,1.3
2023-10-18T08:14:51.507Z,1.7
2023-10-18T08:15:54.924Z,1.4
2023-10-18T08:16:51.960Z,1.0
2023-10-18T08:17:51.733Z,1.3
2023-10-18T08:18:51.987Z,1.7
2023-10-18T08:19:51.822Z,1.3
2023-10-18T08:20:51.743Z,1.0
2023-10-18T08:21:51.944Z,1.1
2023-10-18T08:22:52.093Z,1.2
2023-10-18T08:23:55.836Z,1.4
2023-10-18T08:24:51.622Z,1.5
2023-10-18T08:25:51.614Z,1.2
2023-10-18T08:26:51.176Z,1.4
2023-10-18T08:27:52.089Z,1.8
2023-10-18T08:28:51.729Z,1.4
2023-10-18T08:29:51.553Z,2.1
2023-10-18T08:30:51.306Z,1.5
2023-10-18T08:31:51.984Z,1.2
2023-10-18T08:32:51.882Z,1.0
2023-10-18T08:33:51.598Z,1.5
2023-10-18T08:34:51.329Z,2.2
2023-10-18T08:35:52.013Z,1.8
2023-10-18T08:36:51.813Z,1.6
2023-10-18T08:37:51.610Z,1.9
2023-10-18T08:38:51.469Z,1.3
2023-10-18T08:39:51.207Z,0.9
2023-10-18T08:40:51.973Z,0.9
2023-10-18T08:41:58.212Z,1.2
2023-10-18T08:42:52.262Z,2.1
2023-10-18T08:44:09.110Z,2.2
2023-10-18T08:44:52.179Z,1.6
2023-10-18T08:45:51.764Z,1.6
2023-10-18T08:46:51.845Z,1.4
2023-10-18T08:47:52.502Z,1.4
2023-10-18T08:48:55.055Z,1.1
2023-10-18T08:49:51.873Z,1.6
2023-10-18T08:50:51.568Z,1.6
2023-10-18T08:51:52.080Z,1.0
2023-10-18T08:52:51.270Z,1.1
2023-10-18T08:53:54.147Z,1.0
2023-10-18T08:54:51.758Z,1.1
2023-10-18T08:55:52.231Z,1.5
2023-10-18T08:56:51.578Z,0.9
2023-10-18T08:57:52.752Z,1.4
2023-10-18T08:58:53.713Z,1.2
2023-10-18T08:59:52.202Z,1.4
2023-10-18T09:00:51.903Z,0.8
2023-10-18T09:01:51.254Z,0.8
2023-10-18T09:02:55.027Z,2.0
2023-10-18T09:03:51.786Z,0.8
2023-10-18T09:04:54.718Z,1.2
2023-10-18T09:05:51.702Z,1.0
2023-10-18T09:06:52.079Z,0.6
2023-10-18T09:07:55.336Z,0.8
2023-10-18T09:08:51.641Z,2.0
2023-10-18T09:09:53.540Z,1.6
2023-10-18T09:10:52.456Z,1.3
2023-10-18T09:11:51.884Z,2.2
2023-10-18T09:12:51.645Z,1.2
2023-10-18T09:13:51.648Z,1.6
2023-10-18T09:14:54.042Z,2.6
2023-10-18T09:15:59.490Z,1.2
2023-10-18T09:16:51.780Z,1.7
2023-10-18T09:17:51.882Z,1.3
2023-10-18T09:18:51.315Z,0.8
2023-10-18T09:19:54.858Z,2.1
2023-10-18T09:20:52.275Z,1.0
2023-10-18T09:21:51.656Z,0.8
2023-10-18T09:22:51.545Z,1.5
2023-10-18T09:23:51.204Z,1.3
2023-10-18T09:24:51.876Z,1.7
2023-10-18T09:25:52.067Z,1.9
2023-10-18T09:26:51.518Z,1.0
2023-10-18T09:27:51.718Z,1.7
2023-10-18T09:28:54.414Z,1.3
2023-10-18T09:29:51.772Z,1.3
2023-10-18T09:30:56.545Z,0.5
2023-10-18T09:31:52.311Z,1.2
2023-10-18T09:32:53.039Z,0.5
2023-10-18T09:33:52.085Z,1.3
2023-10-18T09:34:51.649Z,1.2
2023-10-18T09:35:51.435Z,1.2
2023-10-18T09:36:55.062Z,0.9
2023-10-18T09:37:51.957Z,2.0
2023-10-18T09:38:52.271Z,1.8
2023-10-18T09:39:51.555Z,1.4
2023-10-18T09:40:51.550Z,1.5
2023-10-18T09:41:51.195Z,1.4
2023-10-18T09:42:51.791Z,0.7
2023-10-18T09:43:51.583Z,0.6
2023-10-18T09:44:51.397Z,0.7
2023-10-18T09:45:51.210Z,0.8
2023-10-18T09:46:52.134Z,0.8
2023-10-18T09:47:51.841Z,1.0
2023-10-18T09:48:52.284Z,1.2
2023-10-18T09:49:52.339Z,0.3
2023-10-18T09:50:51.186Z,0.3
2023-10-18T09:51:52.996Z,1.1
2023-10-18T09:52:51.581Z,1.7
2023-10-18T09:53:52.385Z,1.6
2023-10-18T09:54:51.948Z,1.9
2023-10-18T09:55:52.095Z,1.0
2023-10-18T09:56:55.621Z,1.4
2023-10-18T09:57:53.021Z,1.1
2023-10-18T09:58:52.400Z,0.7
2023-10-18T09:59:53.994Z,1.0
2023-10-18T10:00:51.739Z,1.8
2023-10-18T10:01:52.138Z,0.7
2023-10-18T10:02:52.009Z,1.1
2023-10-18T10:03:51.654Z,0.3
2023-10-18T10:04:51.736Z,0.6
2023-10-18T10:05:51.300Z,0.6
2023-10-18T10:06:52.971Z,0.9
2023-10-18T10:07:54.938Z,0.8
2023-10-18T10:08:52.845Z,1.0
2023-10-18T10:09:51.314Z,1.5
2023-10-18T10:10:51.921Z,0.7
2023-10-18T10:11:51.774Z,1.6
2023-10-18T10:12:52.269Z,0.9
2023-10-18T10:13:51.640Z,1.0
2023-10-18T10:14:51.124Z,1.1
2023-10-18T10:15:54.582Z,0.5
2023-10-18T10:16:59.133Z,1.1
2023-10-18T10:17:52.152Z,1.8
2023-10-18T10:18:52.660Z,0.5
2023-10-18T10:19:53.358Z,1.2
2023-10-18T10:20:52.718Z,1.1
2023-10-18T10:21:52.240Z,1.7
2023-10-18T10:22:51.366Z,1.2
2023-10-18T10:23:52.102Z,0.9
2023-10-18T10:25:03.467Z,0.9
2023-10-18T10:26:18.008Z,1.3
2023-10-18T10:26:51.469Z,0.5
2023-10-18T10:27:51.200Z,1.1
2023-10-18T10:28:52.213Z,1.1
2023-10-18T10:29:51.703Z,1.0
2023-10-18T10:30:51.532Z,1.0
2023-10-18T10:31:58.374Z,1.0
2023-10-18T10:32:53.046Z,0.9
2023-10-18T10:34:06.939Z,1.1
2023-10-18T10:35:09.536Z,1.0
2023-10-18T10:35:51.395Z,1.3
2023-10-18T10:36:51.688Z,1.1
2023-10-18T10:37:52.958Z,1.2
2023-10-18T10:38:55.622Z,0.7
2023-10-18T10:39:52.756Z,1.4
2023-10-18T10:40:53.256Z,1.1
2023-10-18T10:41:52.777Z,1.1
2023-10-18T10:42:56.665Z,0.9
2023-10-18T10:44:06.672Z,0.8
2023-10-18T10:44:57.973Z,0.3
2023-10-18T10:45:51.190Z,0.5
2023-10-18T10:46:56.696Z,0.8
2023-10-18T10:47:51.760Z,1.3
2023-10-18T10:48:51.414Z,1.2
2023-10-18T10:49:51.315Z,1.7
2023-10-18T10:50:58.873Z,1.2
2023-10-18T10:51:51.900Z,1.2
2023-10-18T10:52:51.723Z,1.4
2023-10-18T10:53:52.186Z,0.8
2023-10-18T10:54:51.170Z,0.9
2023-10-18T10:55:51.815Z,0.9
2023-10-18T10:56:52.359Z,0.6
2023-10-18T10:57:52.086Z,0.9
2023-10-18T10:58:56.082Z,1.3
2023-10-18T10:59:52.238Z,1.4
2023-10-18T11:01:01.577Z,0.5
2023-10-18T11:01:51.792Z,0.9
2023-10-18T11:02:54.167Z,0.9
2023-10-18T11:03:51.982Z,0.9
2023-10-18T11:04:51.885Z,1.1
2023-10-18T11:05:54.298Z,1.1
2023-10-18T11:06:51.663Z,1.1
2023-10-18T11:07:51.786Z,1.0
2023-10-18T11:08:52.235Z,1.0
2023-10-18T11:09:52.536Z,1.4
2023-10-18T11:10:51.485Z,0.9
2023-10-18T11:11:51.398Z,1.0
2023-10-18T11:12:52.040Z,0.9
2023-10-18T11:13:52.125Z,0.9
2023-10-18T11:14:51.599Z,1.1
2023-10-18T11:15:52.346Z,0.8
2023-10-18T11:16:56.942Z,0.6
2023-10-18T11:17:51.847Z,1.2
2023-10-18T11:18:51.585Z,0.9
2023-10-18T11:19:51.902Z,1.2
2023-10-18T11:20:51.299Z,0.7
2023-10-18T11:21:52.216Z,1.7
2023-10-18T11:22:51.677Z,1.6
2023-10-18T11:23:55.020Z,0.8
2023-10-18T11:24:53.341Z,0.6
2023-10-18T11:25:52.017Z,0.6
2023-10-18T11:26:51.756Z,1.1
2023-10-18T11:27:52.227Z,0.5
2023-10-18T11:28:52.029Z,0.8
2023-10-18T11:29:51.398Z,0.8
2023-10-18T11:30:52.051Z,1.4
2023-10-18T11:31:54.388Z,0.8
2023-10-18T11:32:52.678Z,1.0
2023-10-18T11:33:51.341Z,0.9
2023-10-18T11:34:56.200Z,0.9
2023-10-18T11:35:51.865Z,1.3
2023-10-18T11:36:52.163Z,1.0
2023-10-18T11:37:51.385Z,1.2
2023-10-18T11:38:51.180Z,0.8
2023-10-18T11:39:51.921Z,0.5
2023-10-18T11:40:51.817Z,1.2
2023-10-18T11:41:51.422Z,0.9
2023-10-18T11:42:57.338Z,0.9
2023-10-18T11:43:51.956Z,1.4
2023-10-18T11:44:54.750Z,0.8
2023-10-18T11:45:56.494Z,0.7
2023-10-18T11:46:51.538Z,0.4
2023-10-18T11:47:51.164Z,0.4
2023-10-18T11:48:53.546Z,0.6
2023-10-18T11:49:51.598Z,1.1
2023-10-18T11:50:53.985Z,1.1
2023-10-18T11:51:51.588Z,0.6
2023-10-18T11:52:51.921Z,0.2
2023-10-18T11:53:51.743Z,1.5
2023-10-18T11:54:52.036Z,1.0
2023-10-18T11:55:58.594Z,0.9
2023-10-18T11:56:52.055Z,0.8
2023-10-18T11:57:51.805Z,1.2
2023-10-18T11:59:00.315Z,1.1
2023-10-18T11:59:52.271Z,1.0
2023-10-18T12:00:51.263Z,0.8
2023-10-18T12:01:58.713Z,1.3
2023-10-18T12:02:51.711Z,0.9
2023-10-18T12:03:51.576Z,0.8
2023-10-18T12:04:51.312Z,1.0
2023-10-18T12:05:51.505Z,1.2
2023-10-18T12:06:51.324Z,0.5
2023-10-18T12:07:51.923Z,1.3
2023-10-18T12:08:52.056Z,0.7
2023-10-18T12:09:51.543Z,0.5
2023-10-18T12:10:51.889Z,0.8
2023-10-18T12:11:52.573Z,0.3
2023-10-18T12:12:52.261Z,1.0
2023-10-18T12:13:51.635Z,0.4
2023-10-18T12:14:51.484Z,0.5
2023-10-18T12:15:52.569Z,0.9
2023-10-18T12:16:52.402Z,0.9
2023-10-18T12:17:51.897Z,0.8
2023-10-18T12:18:51.490Z,0.4
2023-10-18T12:19:51.274Z,1.0
2023-10-18T12:20:52.087Z,1.2
2023-10-18T12:21:51.880Z,0.8
2023-10-18T12:22:51.889Z,0.7
2023-10-18T12:23:51.380Z,0.6
2023-10-18T12:24:51.210Z,0.8
2023-10-18T12:25:51.873Z,0.9
2023-10-18T12:26:51.702Z,0.7
2023-10-18T12:27:51.438Z,1.1
2023-10-18T12:28:51.655Z,0.6
2023-10-18T12:29:51.967Z,1.0
2023-10-18T12:30:51.774Z,1.3
2023-10-18T12:31:51.727Z,1.1
2023-10-18T12:32:51.379Z,0.9
2023-10-18T12:33:51.160Z,0.9
2023-10-18T12:34:52.244Z,0.7
2023-10-18T12:35:51.896Z,1.0
2023-10-18T12:36:51.476Z,0.6
2023-10-18T12:37:51.202Z,0.5
2023-10-18T12:38:51.922Z,1.1
2023-10-18T12:39:51.937Z,1.2
2023-10-18T12:40:51.504Z,1.2
2023-10-18T12:41:51.434Z,0.4
2023-10-18T12:42:51.116Z,1.1
2023-10-18T12:43:51.779Z,0.9
2023-10-18T12:44:51.861Z,0.4
2023-10-18T12:45:51.452Z,1.0
2023-10-18T12:46:51.939Z,0.8
2023-10-18T12:47:51.931Z,0.4
2023-10-18T12:48:51.719Z,0.8
2023-10-18T12:49:51.506Z,1.1
2023-10-18T12:50:51.998Z,0.7
2023-10-18T12:51:53.862Z,0.6
2023-10-18T12:52:51.752Z,0.8
2023-10-18T12:53:51.545Z,0.8
2023-10-18T12:54:51.349Z,1.1
2023-10-18T12:55:51.513Z,0.6
2023-10-18T12:56:51.944Z,0.9
2023-10-18T12:57:51.974Z,0.9
2023-10-18T12:58:51.486Z,0.9
2023-10-18T12:59:51.305Z,0.8
2023-10-18T13:00:51.940Z,0.3
2023-10-18T13:01:51.730Z,1.0
2023-10-18T13:02:54.416Z,1.0
2023-10-18T13:03:51.400Z,0.6
2023-10-18T13:04:51.084Z,0.8
2023-10-18T13:05:51.832Z,0.9
2023-10-18T13:06:51.612Z,0.6
2023-10-18T13:07:51.562Z,0.9
2023-10-18T13:08:51.211Z,0.7
2023-10-18T13:09:51.870Z,0.9
2023-10-18T13:10:52.569Z,1.0
2023-10-18T13:11:52.396Z,0.4
2023-10-18T13:12:51.397Z,0.7
2023-10-18T13:13:52.026Z,0.7
2023-10-18T13:14:51.823Z,1.2
2023-10-18T13:15:51.607Z,0.9
2023-10-18T13:16:51.354Z,0.9
2023-10-18T13:17:51.319Z,0.8
2023-10-18T13:18:51.820Z,0.6
2023-10-18T13:19:51.719Z,0.7
2023-10-18T13:20:51.568Z,1.0
2023-10-18T13:21:51.381Z,0.2
2023-10-18T13:22:51.982Z,0.3
2023-10-18T13:23:51.773Z,0.3
2023-10-18T13:24:51.595Z,0.4
2023-10-18T13:25:51.342Z,0.2
2023-10-18T13:26:52.774Z,0.9
2023-10-18T13:27:52.601Z,0.9
2023-10-18T13:28:51.588Z,0.7
2023-10-18T13:29:51.406Z,0.8
2023-10-18T13:30:51.584Z,0.5
2023-10-18T13:31:52.423Z,1.1
2023-10-18T13:32:51.914Z,1.1
2023-10-18T13:33:51.517Z,0.7
2023-10-18T13:34:51.353Z,0.5
2023-10-18T13:35:51.153Z,1.0
2023-10-18T13:36:52.262Z,0.5
2023-10-18T13:37:51.655Z,0.6
2023-10-18T13:38:51.472Z,1.2
2023-10-18T13:39:51.170Z,1.0
2023-10-18T13:40:51.905Z,0.6
2023-10-18T13:41:51.685Z,0.9
2023-10-18T13:42:51.539Z,1.3
2023-10-18T13:43:51.309Z,1.1
2023-10-18T13:44:51.946Z,0.8
2023-10-18T13:45:58.462Z,0.8
2023-10-18T13:47:01.826Z,0.9
2023-10-18T13:47:51.544Z,0.3
2023-10-18T13:48:51.196Z,0.1